createdAt,value
2018-12-30T00:00:48.346Z,14.07
2018-12-30T00:05:53.306Z,16.77
2018-12-30T00:10:58.826Z,18.47
2018-12-30T00:16:03.995Z,15.57
2018-12-30T00:21:09.325Z,15.77
2018-12-30T00:26:14.726Z,12.77
2018-12-30T00:31:19.652Z,18.03
2018-12-30T00:36:24.770Z,12.80
2018-12-30T00:41:29.748Z,17.10
2018-12-30T00:46:34.916Z,16.80
2018-12-30T00:51:39.877Z,15.60
2018-12-30T00:56:44.613Z,13.10
2018-12-30T01:01:49.692Z,12.57
2018-12-30T01:06:54.668Z,17.87
2018-12-30T01:11:59.311Z,11.57
2018-12-30T01:17:04.189Z,13.03
2018-12-30T01:22:09.012Z,14.03
2018-12-30T01:27:13.978Z,13.37
2018-12-30T01:32:18.798Z,14.90
2018-12-30T01:37:23.480Z,17.00
2018-12-30T01:42:28.370Z,18.63
2018-12-30T01:47:33.220Z,16.77
2018-12-30T01:52:38.114Z,16.63
2018-12-30T01:57:42.973Z,14.37
2018-12-30T02:02:48.369Z,19.60
2018-12-30T02:07:53.253Z,15.33
2018-12-30T02:12:58.064Z,13.43
2018-12-30T02:18:02.836Z,13.93
2018-12-30T02:23:09.078Z,12.87
2018-12-30T02:28:13.764Z,16.60
2018-12-30T02:33:18.797Z,18.40
2018-12-30T02:38:23.549Z,19.70
2018-12-30T02:43:28.668Z,15.13
2018-12-30T02:48:33.353Z,11.90
2018-12-30T02:53:38.357Z,15.10
2018-12-30T02:58:43.225Z,16.23
2018-12-30T03:03:51.216Z,14.77
2018-12-30T03:08:55.978Z,13.97
2018-12-30T03:14:04.340Z,16.33
2018-12-30T03:19:09.314Z,11.20
2018-12-30T03:24:14.002Z,11.97
2018-12-30T03:29:18.962Z,18.43
2018-12-30T03:34:23.698Z,19.97
2018-12-30T03:39:28.488Z,17.57
2018-12-30T03:44:33.366Z,22.73
2018-12-30T03:49:38.152Z,16.10
2018-12-30T03:54:43.051Z,13.47
2018-12-30T03:59:48.107Z,19.13
2018-12-30T04:04:52.772Z,11.17
2018-12-30T04:09:57.457Z,11.60
2018-12-30T04:15:02.158Z,8.93
2018-12-30T04:20:06.909Z,16.37
2018-12-30T04:25:11.791Z,13.40
2018-12-30T04:30:16.563Z,13.97
2018-12-30T04:35:21.599Z,15.33
2018-12-30T04:40:26.637Z,10.03
2018-12-30T04:45:31.280Z,17.70
2018-12-30T04:50:35.940Z,10.17
2018-12-30T04:55:40.746Z,12.10
2018-12-30T05:00:45.688Z,15.30
2018-12-30T05:05:50.398Z,17.20
2018-12-30T05:10:55.170Z,13.47
2018-12-30T05:16:00.990Z,12.67
2018-12-30T05:21:06.169Z,17.17
2018-12-30T05:26:11.205Z,10.67
2018-12-30T05:31:16.249Z,13.47
2018-12-30T05:36:20.998Z,15.30
2018-12-30T05:41:26.082Z,17.00
2018-12-30T05:46:30.790Z,12.70
2018-12-30T05:51:35.755Z,11.43
2018-12-30T05:56:40.622Z,11.97
2018-12-30T06:01:45.513Z,10.90
2018-12-30T06:06:50.262Z,10.77
2018-12-30T06:11:55.039Z,13.20
2018-12-30T06:16:59.693Z,16.43
2018-12-30T06:22:04.441Z,6.73
2018-12-30T06:27:09.220Z,12.37
2018-12-30T06:32:14.214Z,12.97
2018-12-30T06:37:19.074Z,15.67
2018-12-30T06:42:23.851Z,14.40
2018-12-30T06:47:28.479Z,15.17
2018-12-30T06:52:33.197Z,14.13
2018-12-30T06:57:38.147Z,13.33
2018-12-30T07:02:42.858Z,11.30
2018-12-30T07:07:47.840Z,14.93
2018-12-30T07:12:52.672Z,16.27
2018-12-30T07:17:58.745Z,11.67
2018-12-30T07:23:06.008Z,9.13
2018-12-30T07:28:09.818Z,10.60
2018-12-30T07:33:14.528Z,10.27
2018-12-30T07:38:19.310Z,9.70
2018-12-30T07:43:24.040Z,9.30
2018-12-30T07:48:28.668Z,10.43
2018-12-30T07:53:34.635Z,9.70
2018-12-30T07:58:39.372Z,11.50
2018-12-30T08:03:44.105Z,10.40
2018-12-30T08:08:49.421Z,10.90
2018-12-30T08:13:54.519Z,8.43
2018-12-30T08:18:59.126Z,16.57
2018-12-30T08:24:03.894Z,13.87
2018-12-30T08:29:11.804Z,7.37
2018-12-30T08:34:17.006Z,11.17
2018-12-30T08:39:21.787Z,10.37
2018-12-30T08:44:26.588Z,11.27
2018-12-30T08:49:31.626Z,9.63
2018-12-30T08:54:36.847Z,12.63
2018-12-30T08:59:44.297Z,14.20
2018-12-30T09:04:49.352Z,10.73
2018-12-30T09:09:54.978Z,16.37
2018-12-30T09:14:59.966Z,14.37
2018-12-30T09:20:05.409Z,9.43
2018-12-30T09:25:12.529Z,9.77
2018-12-30T09:30:18.267Z,12.20
2018-12-30T09:35:28.596Z,7.87
2018-12-30T09:40:34.344Z,16.40
2018-12-30T09:45:40.887Z,18.17
2018-12-30T09:50:48.236Z,13.87
2018-12-30T09:55:53.465Z,6.83
2018-12-30T10:00:58.629Z,14.43
2018-12-30T10:06:03.477Z,9.47
2018-12-30T10:11:09.316Z,9.03
2018-12-30T10:16:14.282Z,10.53
2018-12-30T10:21:19.917Z,11.43
2018-12-30T10:26:27.109Z,9.77
2018-12-30T10:31:31.969Z,10.30
2018-12-30T10:36:37.164Z,6.73
2018-12-30T10:41:42.293Z,9.53
2018-12-30T10:46:47.162Z,9.43
2018-12-30T10:51:51.864Z,6.57
2018-12-30T10:56:56.737Z,18.93
2018-12-30T11:02:02.373Z,14.97
2018-12-30T11:07:07.402Z,12.30
2018-12-30T11:12:12.602Z,18.20
2018-12-30T11:17:17.998Z,12.03
2018-12-30T11:22:22.810Z,19.33
2018-12-30T11:27:27.791Z,19.37
2018-12-30T11:32:32.973Z,11.83
2018-12-30T11:37:40.806Z,14.70
2018-12-30T11:42:46.292Z,10.53
2018-12-30T11:47:51.151Z,11.10
2018-12-30T11:52:57.929Z,12.13
2018-12-30T11:58:23.915Z,13.23
2018-12-30T12:03:29.124Z,13.90
2018-12-30T12:08:34.399Z,10.87
2018-12-30T12:13:39.455Z,6.47
2018-12-30T12:18:44.932Z,13.77
2018-12-30T12:23:50.022Z,11.13
2018-12-30T12:28:57.369Z,13.03
2018-12-30T12:34:02.705Z,11.83
2018-12-30T12:39:08.191Z,16.53
2018-12-30T12:44:14.825Z,11.43
2018-12-30T12:49:20.961Z,10.73
2018-12-30T12:54:32.084Z,12.73
2018-12-30T12:59:33.142Z,16.60
2018-12-30T13:04:38.221Z,11.30
2018-12-30T13:09:43.428Z,17.33
2018-12-30T13:14:50.942Z,15.83
2018-12-30T13:19:56.275Z,14.87
2018-12-30T13:25:01.322Z,11.20
2018-12-30T13:30:07.333Z,17.17
2018-12-30T13:35:17.828Z,18.67
2018-12-30T13:40:31.282Z,17.70
2018-12-30T13:45:37.751Z,24.30
2018-12-30T13:50:57.905Z,22.13
2018-12-30T13:56:10.246Z,12.90
2018-12-30T14:01:20.713Z,9.83
2018-12-30T14:06:27.427Z,14.03
2018-12-30T14:11:36.137Z,9.80
2018-12-30T14:16:41.142Z,13.67
2018-12-30T14:21:46.395Z,16.40
2018-12-30T14:27:00.220Z,15.73
2018-12-30T14:32:08.037Z,13.43
2018-12-30T14:37:13.553Z,16.90
2018-12-30T14:42:19.709Z,12.70
2018-12-30T14:47:25.098Z,9.77
2018-12-30T14:52:33.043Z,12.87
2018-12-30T14:57:38.030Z,16.50
2018-12-30T15:02:50.753Z,9.37
2018-12-30T15:07:55.661Z,12.93
2018-12-30T15:13:01.867Z,13.17
2018-12-30T15:18:07.464Z,7.00
2018-12-30T15:23:13.063Z,8.80
2018-12-30T15:28:19.052Z,7.47
2018-12-30T15:33:23.945Z,10.20
2018-12-30T15:38:28.831Z,14.63
2018-12-30T15:43:34.945Z,12.10
2018-12-30T15:48:39.725Z,17.53
2018-12-30T15:53:45.312Z,11.07
2018-12-30T15:58:50.977Z,11.70
2018-12-30T16:10:15.114Z,13.07
2018-12-30T16:15:26.491Z,15.40
2018-12-30T16:20:58.531Z,20.57
2018-12-30T16:26:29.875Z,15.70
2018-12-30T16:32:18.619Z,10.93
2018-12-30T16:43:30.942Z,10.13
2018-12-30T16:48:39.958Z,18.60
2018-12-30T16:53:46.708Z,15.10
2018-12-30T16:59:06.923Z,16.17
2018-12-30T17:04:12.825Z,16.47
2018-12-30T17:09:17.725Z,16.53
2018-12-30T17:14:22.854Z,18.03
2018-12-30T17:19:28.070Z,17.70
2018-12-30T17:24:33.145Z,19.33
2018-12-30T17:29:40.020Z,20.93
2018-12-30T17:34:45.190Z,21.67
2018-12-30T17:39:51.095Z,26.40
2018-12-30T17:44:59.931Z,21.53
2018-12-30T17:50:07.152Z,21.93
2018-12-30T17:55:14.363Z,26.70
2018-12-30T18:00:19.858Z,23.17
2018-12-30T18:05:24.633Z,20.33
2018-12-30T18:10:29.769Z,15.33
2018-12-30T18:15:34.558Z,19.47
2018-12-30T18:20:39.342Z,26.93
2018-12-30T18:25:44.329Z,25.03
2018-12-30T18:30:48.968Z,26.23
2018-12-30T18:35:54.712Z,23.17
2018-12-30T18:40:59.491Z,19.30
2018-12-30T18:46:04.281Z,17.73
2018-12-30T18:51:09.023Z,20.60
2018-12-30T18:56:14.163Z,24.83
2018-12-30T19:01:21.521Z,20.57
2018-12-30T19:06:26.906Z,23.27
2018-12-30T19:11:32.196Z,14.53
2018-12-30T19:16:37.786Z,20.60
2018-12-30T19:21:42.804Z,26.13
2018-12-30T19:26:48.157Z,17.13
2018-12-30T19:31:53.049Z,22.40
2018-12-30T19:36:58.232Z,22.30
2018-12-30T19:42:03.146Z,18.60
2018-12-30T19:47:11.910Z,29.47
2018-12-30T19:52:17.896Z,23.47
2018-12-30T19:57:24.869Z,24.23
2018-12-30T20:02:30.854Z,19.77
2018-12-30T20:07:36.870Z,19.80
2018-12-30T20:12:42.410Z,19.33
2018-12-30T20:17:47.708Z,29.73
2018-12-30T20:22:54.363Z,32.20
2018-12-30T20:28:00.150Z,24.30
2018-12-30T20:33:06.630Z,19.43
2018-12-30T20:38:12.374Z,21.63
2018-12-30T20:43:18.263Z,24.80
2018-12-30T20:48:26.043Z,28.30
2018-12-30T20:53:32.558Z,16.57
2018-12-30T20:58:40.867Z,21.20
2018-12-30T21:03:50.928Z,18.03
2018-12-30T21:08:56.562Z,24.13
2018-12-30T21:14:05.921Z,25.47
2018-12-30T21:19:34.126Z,17.73
2018-12-30T21:25:10.155Z,14.27
2018-12-30T21:30:55.331Z,22.50
2018-12-30T21:36:00.985Z,23.23
2018-12-30T21:47:30.463Z,16.20
2018-12-30T21:52:47.304Z,17.27
2018-12-30T21:57:51.865Z,18.27
2018-12-30T22:02:56.690Z,18.87
2018-12-30T22:08:01.351Z,21.37
2018-12-30T22:13:06.003Z,24.53
2018-12-30T22:18:10.456Z,18.97
2018-12-30T22:23:15.045Z,20.07
2018-12-30T22:28:19.674Z,17.77
2018-12-30T22:33:24.286Z,20.00
2018-12-30T22:38:29.204Z,20.97
2018-12-30T22:43:33.795Z,13.83
2018-12-30T22:48:38.493Z,20.50
2018-12-30T22:53:42.933Z,15.23
2018-12-30T22:58:47.470Z,16.30
2018-12-30T23:03:52.090Z,13.43
2018-12-30T23:08:56.570Z,20.80
2018-12-30T23:14:01.215Z,19.10
2018-12-30T23:19:05.963Z,20.53
2018-12-30T23:24:10.531Z,16.47
2018-12-30T23:29:15.106Z,17.27
2018-12-30T23:34:19.583Z,17.63
2018-12-30T23:39:24.206Z,22.77
2018-12-30T23:44:28.895Z,21.47
2018-12-30T23:49:33.740Z,19.17
2018-12-30T23:54:56.766Z,24.17
